sensor_id;sensor_type;location;lat;lon;timestamp;P1;durP1;ratioP1;P2;durP2;ratioP2
14137;SDS011;8199;51.310;9.466;2023-08-12T00:00:09;7.53;;;5.35;;
14137;SDS011;8199;51.310;9.466;2023-08-12T00:02:40;6.60;;;4.55;;
14137;SDS011;8199;51.310;9.466;2023-08-12T00:05:06;6.55;;;4.22;;
14137;SDS011;8199;51.310;9.466;2023-08-12T00:07:33;7.43;;;4.82;;
14137;SDS011;8199;51.310;9.466;2023-08-12T00:09:59;7.38;;;4.63;;
14137;SDS011;8199;51.310;9.466;2023-08-12T00:12:28;5.85;;;4.05;;
14137;SDS011;8199;51.310;9.466;2023-08-12T00:14:54;6.32;;;4.53;;
14137;SDS011;8199;51.310;9.466;2023-08-12T00:17:20;7.53;;;4.57;;
14137;SDS011;8199;51.310;9.466;2023-08-12T00:19:46;6.80;;;4.28;;
14137;SDS011;8199;51.310;9.466;2023-08-12T00:22:11;5.25;;;4.25;;
14137;SDS011;8199;51.310;9.466;2023-08-12T00:24:38;5.80;;;4.20;;
14137;SDS011;8199;51.310;9.466;2023-08-12T00:27:03;7.45;;;4.30;;
14137;SDS011;8199;51.310;9.466;2023-08-12T00:29:29;4.65;;;4.18;;
14137;SDS011;8199;51.310;9.466;2023-08-12T00:31:55;5.40;;;4.00;;
14137;SDS011;8199;51.310;9.466;2023-08-12T00:34:20;5.55;;;3.70;;
14137;SDS011;8199;51.310;9.466;2023-08-12T00:36:46;4.95;;;4.10;;
14137;SDS011;8199;51.310;9.466;2023-08-12T00:39:12;5.68;;;4.47;;
14137;SDS011;8199;51.310;9.466;2023-08-12T00:41:37;5.28;;;4.00;;
14137;SDS011;8199;51.310;9.466;2023-08-12T00:44:03;4.78;;;4.05;;
14137;SDS011;8199;51.310;9.466;2023-08-12T00:46:29;5.35;;;4.03;;
14137;SDS011;8199;51.310;9.466;2023-08-12T00:48:55;6.00;;;3.90;;
14137;SDS011;8199;51.310;9.466;2023-08-12T00:51:20;6.47;;;4.68;;
14137;SDS011;8199;51.310;9.466;2023-08-12T00:53:46;4.85;;;3.60;;
14137;SDS011;8199;51.310;9.466;2023-08-12T00:56:12;6.00;;;4.03;;
14137;SDS011;8199;51.310;9.466;2023-08-12T00:58:38;5.97;;;4.20;;
14137;SDS011;8199;51.310;9.466;2023-08-12T01:01:05;5.82;;;4.07;;
14137;SDS011;8199;51.310;9.466;2023-08-12T01:03:31;4.80;;;3.72;;
14137;SDS011;8199;51.310;9.466;2023-08-12T01:05:57;4.60;;;3.75;;
14137;SDS011;8199;51.310;9.466;2023-08-12T01:08:23;4.90;;;4.30;;
14137;SDS011;8199;51.310;9.466;2023-08-12T01:10:56;7.00;;;3.67;;
14137;SDS011;8199;51.310;9.466;2023-08-12T01:13:29;5.05;;;3.88;;
14137;SDS011;8199;51.310;9.466;2023-08-12T01:16:00;5.10;;;4.20;;
14137;SDS011;8199;51.310;9.466;2023-08-12T01:18:30;5.72;;;4.25;;
14137;SDS011;8199;51.310;9.466;2023-08-12T01:20:56;5.20;;;4.05;;
14137;SDS011;8199;51.310;9.466;2023-08-12T01:23:24;4.82;;;3.72;;
14137;SDS011;8199;51.310;9.466;2023-08-12T01:25:49;4.53;;;3.80;;
14137;SDS011;8199;51.310;9.466;2023-08-12T01:28:15;3.85;;;3.33;;
14137;SDS011;8199;51.310;9.466;2023-08-12T01:30:46;4.95;;;3.63;;
14137;SDS011;8199;51.310;9.466;2023-08-12T01:33:32;4.10;;;3.70;;
14137;SDS011;8199;51.310;9.466;2023-08-12T01:36:22;4.22;;;3.65;;
14137;SDS011;8199;51.310;9.466;2023-08-12T01:38:49;4.43;;;3.70;;
14137;SDS011;8199;51.310;9.466;2023-08-12T01:41:16;4.43;;;3.60;;
14137;SDS011;8199;51.310;9.466;2023-08-12T01:43:44;6.18;;;3.95;;
14137;SDS011;8199;51.310;9.466;2023-08-12T01:46:11;4.95;;;3.78;;
14137;SDS011;8199;51.310;9.466;2023-08-12T01:48:36;4.47;;;3.53;;
14137;SDS011;8199;51.310;9.466;2023-08-12T01:51:02;5.18;;;4.00;;
14137;SDS011;8199;51.310;9.466;2023-08-12T01:53:28;3.97;;;3.67;;
14137;SDS011;8199;51.310;9.466;2023-08-12T01:55:53;4.72;;;3.25;;
14137;SDS011;8199;51.310;9.466;2023-08-12T01:58:19;4.65;;;3.33;;
14137;SDS011;8199;51.310;9.466;2023-08-12T02:00:45;4.80;;;3.88;;
14137;SDS011;8199;51.310;9.466;2023-08-12T02:03:10;3.97;;;3.50;;
14137;SDS011;8199;51.310;9.466;2023-08-12T02:05:36;4.22;;;3.63;;
14137;SDS011;8199;51.310;9.466;2023-08-12T02:08:02;3.92;;;3.53;;
14137;SDS011;8199;51.310;9.466;2023-08-12T02:10:31;4.38;;;3.42;;
14137;SDS011;8199;51.310;9.466;2023-08-12T02:12:56;3.88;;;3.55;;
14137;SDS011;8199;51.310;9.466;2023-08-12T02:15:22;4.90;;;3.42;;
14137;SDS011;8199;51.310;9.466;2023-08-12T02:17:48;3.97;;;3.40;;
14137;SDS011;8199;51.310;9.466;2023-08-12T02:20:13;3.83;;;3.42;;
14137;SDS011;8199;51.310;9.466;2023-08-12T02:22:39;3.65;;;3.17;;
14137;SDS011;8199;51.310;9.466;2023-08-12T02:25:04;4.93;;;2.90;;
14137;SDS011;8199;51.310;9.466;2023-08-12T02:27:30;3.38;;;3.08;;
14137;SDS011;8199;51.310;9.466;2023-08-12T02:29:56;4.80;;;3.70;;
14137;SDS011;8199;51.310;9.466;2023-08-12T02:32:21;6.30;;;3.60;;
14137;SDS011;8199;51.310;9.466;2023-08-12T02:34:47;3.65;;;3.35;;
14137;SDS011;8199;51.310;9.466;2023-08-12T02:37:12;4.25;;;3.17;;
14137;SDS011;8199;51.310;9.466;2023-08-12T02:39:38;5.25;;;3.80;;
14137;SDS011;8199;51.310;9.466;2023-08-12T02:42:04;4.72;;;3.42;;
14137;SDS011;8199;51.310;9.466;2023-08-12T02:44:29;4.35;;;3.40;;
14137;SDS011;8199;51.310;9.466;2023-08-12T02:46:55;4.13;;;3.20;;
14137;SDS011;8199;51.310;9.466;2023-08-12T02:49:21;3.55;;;3.25;;
14137;SDS011;8199;51.310;9.466;2023-08-12T02:51:46;3.38;;;2.92;;
14137;SDS011;8199;51.310;9.466;2023-08-12T02:54:12;3.78;;;3.00;;
14137;SDS011;8199;51.310;9.466;2023-08-12T02:56:37;3.33;;;3.10;;
14137;SDS011;8199;51.310;9.466;2023-08-12T02:59:03;3.30;;;3.00;;
14137;SDS011;8199;51.310;9.466;2023-08-12T03:01:29;3.53;;;3.10;;
14137;SDS011;8199;51.310;9.466;2023-08-12T03:03:55;5.00;;;3.40;;
14137;SDS011;8199;51.310;9.466;2023-08-12T03:06:20;3.38;;;3.08;;
14137;SDS011;8199;51.310;9.466;2023-08-12T03:08:46;3.45;;;3.10;;
14137;SDS011;8199;51.310;9.466;2023-08-12T03:11:11;3.55;;;3.25;;
14137;SDS011;8199;51.310;9.466;2023-08-12T03:13:37;3.50;;;3.20;;
14137;SDS011;8199;51.310;9.466;2023-08-12T03:16:02;3.53;;;3.22;;
14137;SDS011;8199;51.310;9.466;2023-08-12T03:18:28;3.78;;;3.47;;
14137;SDS011;8199;51.310;9.466;2023-08-12T03:20:54;4.07;;;3.35;;
14137;SDS011;8199;51.310;9.466;2023-08-12T03:23:19;3.22;;;2.92;;
14137;SDS011;8199;51.310;9.466;2023-08-12T03:25:46;3.58;;;3.25;;
14137;SDS011;8199;51.310;9.466;2023-08-12T03:28:13;3.90;;;3.08;;
14137;SDS011;8199;51.310;9.466;2023-08-12T03:30:38;3.45;;;3.15;;
14137;SDS011;8199;51.310;9.466;2023-08-12T03:33:04;3.45;;;2.92;;
14137;SDS011;8199;51.310;9.466;2023-08-12T03:35:30;3.58;;;3.13;;
14137;SDS011;8199;51.310;9.466;2023-08-12T03:37:55;3.53;;;3.22;;
14137;SDS011;8199;51.310;9.466;2023-08-12T03:40:21;2.63;;;2.40;;
14137;SDS011;8199;51.310;9.466;2023-08-12T03:42:46;5.13;;;3.15;;
14137;SDS011;8199;51.310;9.466;2023-08-12T03:45:12;3.50;;;3.20;;
14137;SDS011;8199;51.310;9.466;2023-08-12T03:47:37;3.42;;;3.00;;
14137;SDS011;8199;51.310;9.466;2023-08-12T03:50:03;2.92;;;2.72;;
14137;SDS011;8199;51.310;9.466;2023-08-12T03:52:29;3.25;;;2.95;;
14137;SDS011;8199;51.310;9.466;2023-08-12T03:54:55;3.80;;;3.00;;
14137;SDS011;8199;51.310;9.466;2023-08-12T03:57:20;3.95;;;3.17;;
14137;SDS011;8199;51.310;9.466;2023-08-12T03:59:46;3.42;;;3.13;;
14137;SDS011;8199;51.310;9.466;2023-08-12T04:02:11;3.45;;;3.15;;
14137;SDS011;8199;51.310;9.466;2023-08-12T04:04:37;3.28;;;2.97;;
14137;SDS011;8199;51.310;9.466;2023-08-12T04:07:02;4.45;;;3.15;;
14137;SDS011;8199;51.310;9.466;2023-08-12T04:09:28;3.50;;;2.95;;
14137;SDS011;8199;51.310;9.466;2023-08-12T04:11:54;3.17;;;2.85;;
14137;SDS011;8199;51.310;9.466;2023-08-12T04:14:19;2.97;;;2.55;;
14137;SDS011;8199;51.310;9.466;2023-08-12T04:16:45;3.22;;;2.92;;
14137;SDS011;8199;51.310;9.466;2023-08-12T04:19:11;2.83;;;2.60;;
14137;SDS011;8199;51.310;9.466;2023-08-12T04:21:36;3.38;;;3.08;;
14137;SDS011;8199;51.310;9.466;2023-08-12T04:24:02;3.55;;;3.03;;
14137;SDS011;8199;51.310;9.466;2023-08-12T04:26:27;3.15;;;2.85;;
14137;SDS011;8199;51.310;9.466;2023-08-12T04:28:53;3.85;;;3.08;;
14137;SDS011;8199;51.310;9.466;2023-08-12T04:31:18;3.40;;;3.10;;
14137;SDS011;8199;51.310;9.466;2023-08-12T04:33:44;3.83;;;3.05;;
14137;SDS011;8199;51.310;9.466;2023-08-12T04:36:10;3.05;;;2.72;;
14137;SDS011;8199;51.310;9.466;2023-08-12T04:38:36;3.72;;;3.08;;
14137;SDS011;8199;51.310;9.466;2023-08-12T04:41:01;3.30;;;3.00;;
14137;SDS011;8199;51.310;9.466;2023-08-12T04:43:27;3.13;;;2.80;;
14137;SDS011;8199;51.310;9.466;2023-08-12T04:45:53;8.55;;;3.10;;
14137;SDS011;8199;51.310;9.466;2023-08-12T04:48:18;4.35;;;2.72;;
14137;SDS011;8199;51.310;9.466;2023-08-12T04:50:44;4.57;;;3.28;;
14137;SDS011;8199;51.310;9.466;2023-08-12T04:53:09;5.63;;;2.85;;
14137;SDS011;8199;51.310;9.466;2023-08-12T04:55:35;3.38;;;2.90;;
14137;SDS011;8199;51.310;9.466;2023-08-12T04:58:01;3.20;;;2.90;;
14137;SDS011;8199;51.310;9.466;2023-08-12T05:00:27;4.53;;;2.90;;
14137;SDS011;8199;51.310;9.466;2023-08-12T05:02:53;3.85;;;2.97;;
14137;SDS011;8199;51.310;9.466;2023-08-12T05:05:19;3.47;;;3.00;;
14137;SDS011;8199;51.310;9.466;2023-08-12T05:07:45;3.95;;;2.88;;
14137;SDS011;8199;51.310;9.466;2023-08-12T05:10:14;3.03;;;2.80;;
14137;SDS011;8199;51.310;9.466;2023-08-12T05:12:43;3.30;;;3.00;;
14137;SDS011;8199;51.310;9.466;2023-08-12T05:15:09;3.95;;;2.72;;
14137;SDS011;8199;51.310;9.466;2023-08-12T05:17:35;3.22;;;2.92;;
14137;SDS011;8199;51.310;9.466;2023-08-12T05:20:01;4.00;;;3.00;;
14137;SDS011;8199;51.310;9.466;2023-08-12T05:22:28;4.03;;;3.10;;
14137;SDS011;8199;51.310;9.466;2023-08-12T05:24:53;3.78;;;3.00;;
14137;SDS011;8199;51.310;9.466;2023-08-12T05:27:19;3.50;;;3.17;;
14137;SDS011;8199;51.310;9.466;2023-08-12T05:29:44;3.13;;;2.85;;
14137;SDS011;8199;51.310;9.466;2023-08-12T05:32:10;3.33;;;2.75;;
14137;SDS011;8199;51.310;9.466;2023-08-12T05:34:35;3.08;;;2.78;;
14137;SDS011;8199;51.310;9.466;2023-08-12T05:37:01;3.75;;;3.00;;
14137;SDS011;8199;51.310;9.466;2023-08-12T05:39:26;3.47;;;2.72;;
14137;SDS011;8199;51.310;9.466;2023-08-12T05:41:52;3.17;;;2.65;;
14137;SDS011;8199;51.310;9.466;2023-08-12T05:44:17;3.13;;;2.92;;
14137;SDS011;8199;51.310;9.466;2023-08-12T05:46:43;4.32;;;2.92;;
14137;SDS011;8199;51.310;9.466;2023-08-12T05:49:09;3.38;;;2.70;;
14137;SDS011;8199;51.310;9.466;2023-08-12T05:51:34;2.90;;;2.60;;
14137;SDS011;8199;51.310;9.466;2023-08-12T05:54:00;2.70;;;2.50;;
14137;SDS011;8199;51.310;9.466;2023-08-12T05:56:26;3.35;;;2.58;;
14137;SDS011;8199;51.310;9.466;2023-08-12T05:58:51;3.65;;;2.75;;
14137;SDS011;8199;51.310;9.466;2023-08-12T06:01:17;3.25;;;2.97;;
14137;SDS011;8199;51.310;9.466;2023-08-12T06:03:43;3.63;;;2.83;;
14137;SDS011;8199;51.310;9.466;2023-08-12T06:06:09;3.65;;;3.00;;
14137;SDS011;8199;51.310;9.466;2023-08-12T06:08:34;2.80;;;2.60;;
14137;SDS011;8199;51.310;9.466;2023-08-12T06:11:00;3.10;;;2.80;;
14137;SDS011;8199;51.310;9.466;2023-08-12T06:13:26;2.90;;;2.70;;
14137;SDS011;8199;51.310;9.466;2023-08-12T06:15:52;4.38;;;2.95;;
14137;SDS011;8199;51.310;9.466;2023-08-12T06:18:17;3.45;;;2.97;;
14137;SDS011;8199;51.310;9.466;2023-08-12T06:20:43;3.38;;;2.80;;
14137;SDS011;8199;51.310;9.466;2023-08-12T06:23:08;6.15;;;3.03;;
14137;SDS011;8199;51.310;9.466;2023-08-12T06:25:34;3.20;;;2.90;;
14137;SDS011;8199;51.310;9.466;2023-08-12T06:28:01;3.30;;;3.00;;
14137;SDS011;8199;51.310;9.466;2023-08-12T06:30:29;3.38;;;2.78;;
14137;SDS011;8199;51.310;9.466;2023-08-12T06:32:55;3.50;;;3.00;;
14137;SDS011;8199;51.310;9.466;2023-08-12T06:35:20;2.92;;;2.72;;
14137;SDS011;8199;51.310;9.466;2023-08-12T06:37:46;3.00;;;2.70;;
14137;SDS011;8199;51.310;9.466;2023-08-12T06:40:12;2.80;;;2.60;;
14137;SDS011;8199;51.310;9.466;2023-08-12T06:42:37;2.90;;;2.65;;
14137;SDS011;8199;51.310;9.466;2023-08-12T06:45:04;2.88;;;2.67;;
14137;SDS011;8199;51.310;9.466;2023-08-12T06:47:30;3.40;;;2.83;;
14137;SDS011;8199;51.310;9.466;2023-08-12T06:49:56;2.90;;;2.58;;
14137;SDS011;8199;51.310;9.466;2023-08-12T06:52:22;3.40;;;3.10;;
14137;SDS011;8199;51.310;9.466;2023-08-12T06:54:47;3.55;;;2.72;;
14137;SDS011;8199;51.310;9.466;2023-08-12T06:57:13;3.25;;;2.92;;
14137;SDS011;8199;51.310;9.466;2023-08-12T06:59:38;3.53;;;2.78;;
14137;SDS011;8199;51.310;9.466;2023-08-12T07:02:04;4.65;;;3.45;;
14137;SDS011;8199;51.310;9.466;2023-08-12T07:04:31;2.85;;;2.47;;
14137;SDS011;8199;51.310;9.466;2023-08-12T07:06:57;3.22;;;2.80;;
14137;SDS011;8199;51.310;9.466;2023-08-12T07:09:22;2.67;;;2.47;;
14137;SDS011;8199;51.310;9.466;2023-08-12T07:11:48;3.40;;;2.85;;
14137;SDS011;8199;51.310;9.466;2023-08-12T07:14:13;2.63;;;2.42;;
14137;SDS011;8199;51.310;9.466;2023-08-12T07:16:39;4.70;;;2.90;;
14137;SDS011;8199;51.310;9.466;2023-08-12T07:19:04;2.85;;;2.63;;
14137;SDS011;8199;51.310;9.466;2023-08-12T07:21:30;2.83;;;2.63;;
14137;SDS011;8199;51.310;9.466;2023-08-12T07:23:56;3.20;;;2.40;;
14137;SDS011;8199;51.310;9.466;2023-08-12T07:26:21;2.70;;;2.30;;
14137;SDS011;8199;51.310;9.466;2023-08-12T07:28:48;2.90;;;2.58;;
14137;SDS011;8199;51.310;9.466;2023-08-12T07:31:13;3.58;;;2.83;;
14137;SDS011;8199;51.310;9.466;2023-08-12T07:33:39;3.08;;;2.42;;
14137;SDS011;8199;51.310;9.466;2023-08-12T07:36:04;3.53;;;2.67;;
14137;SDS011;8199;51.310;9.466;2023-08-12T07:38:30;2.80;;;2.60;;
14137;SDS011;8199;51.310;9.466;2023-08-12T07:40:56;4.13;;;2.60;;
14137;SDS011;8199;51.310;9.466;2023-08-12T07:43:22;5.25;;;2.60;;
14137;SDS011;8199;51.310;9.466;2023-08-12T07:45:54;2.45;;;2.25;;
14137;SDS011;8199;51.310;9.466;2023-08-12T07:48:20;4.15;;;2.45;;
14137;SDS011;8199;51.310;9.466;2023-08-12T07:50:46;5.28;;;2.80;;
14137;SDS011;8199;51.310;9.466;2023-08-12T07:53:15;4.47;;;2.50;;
14137;SDS011;8199;51.310;9.466;2023-08-12T07:55:41;3.40;;;2.47;;
14137;SDS011;8199;51.310;9.466;2023-08-12T07:58:07;3.95;;;2.47;;
14137;SDS011;8199;51.310;9.466;2023-08-12T08:00:33;3.00;;;2.65;;
14137;SDS011;8199;51.310;9.466;2023-08-12T08:02:58;6.47;;;2.35;;
14137;SDS011;8199;51.310;9.466;2023-08-12T08:05:24;4.07;;;2.45;;
14137;SDS011;8199;51.310;9.466;2023-08-12T08:07:49;2.90;;;2.60;;
14137;SDS011;8199;51.310;9.466;2023-08-12T08:10:15;8.50;;;2.92;;
14137;SDS011;8199;51.310;9.466;2023-08-12T08:12:40;3.45;;;3.10;;
14137;SDS011;8199;51.310;9.466;2023-08-12T08:15:06;3.60;;;2.75;;
14137;SDS011;8199;51.310;9.466;2023-08-12T08:17:32;4.50;;;2.65;;
14137;SDS011;8199;51.310;9.466;2023-08-12T08:19:57;4.20;;;2.78;;
14137;SDS011;8199;51.310;9.466;2023-08-12T08:22:23;5.70;;;2.90;;
14137;SDS011;8199;51.310;9.466;2023-08-12T08:24:49;3.30;;;2.58;;
14137;SDS011;8199;51.310;9.466;2023-08-12T08:27:14;3.33;;;2.50;;
14137;SDS011;8199;51.310;9.466;2023-08-12T08:29:40;4.85;;;2.83;;
14137;SDS011;8199;51.310;9.466;2023-08-12T08:32:06;3.38;;;2.50;;
14137;SDS011;8199;51.310;9.466;2023-08-12T08:34:31;3.25;;;2.60;;
14137;SDS011;8199;51.310;9.466;2023-08-12T08:36:57;3.03;;;2.42;;
14137;SDS011;8199;51.310;9.466;2023-08-12T08:39:22;3.70;;;2.60;;
14137;SDS011;8199;51.310;9.466;2023-08-12T08:41:48;3.45;;;2.80;;
14137;SDS011;8199;51.310;9.466;2023-08-12T08:44:14;3.88;;;2.78;;
14137;SDS011;8199;51.310;9.466;2023-08-12T08:46:40;2.80;;;2.42;;
14137;SDS011;8199;51.310;9.466;2023-08-12T08:49:07;3.03;;;2.70;;
14137;SDS011;8199;51.310;9.466;2023-08-12T08:51:36;3.45;;;2.35;;
14137;SDS011;8199;51.310;9.466;2023-08-12T08:54:02;3.20;;;2.67;;
14137;SDS011;8199;51.310;9.466;2023-08-12T08:56:30;2.70;;;2.50;;
14137;SDS011;8199;51.310;9.466;2023-08-12T08:58:57;3.55;;;2.50;;
14137;SDS011;8199;51.310;9.466;2023-08-12T09:01:22;3.35;;;2.38;;
14137;SDS011;8199;51.310;9.466;2023-08-12T09:03:50;6.85;;;2.88;;
14137;SDS011;8199;51.310;9.466;2023-08-12T09:06:17;3.83;;;2.75;;
14137;SDS011;8199;51.310;9.466;2023-08-12T09:08:45;3.65;;;2.65;;
14137;SDS011;8199;51.310;9.466;2023-08-12T09:11:12;3.83;;;2.50;;
14137;SDS011;8199;51.310;9.466;2023-08-12T09:13:40;4.00;;;2.80;;
14137;SDS011;8199;51.310;9.466;2023-08-12T09:16:05;3.33;;;2.33;;
14137;SDS011;8199;51.310;9.466;2023-08-12T09:18:31;3.70;;;2.47;;
14137;SDS011;8199;51.310;9.466;2023-08-12T09:20:57;2.75;;;2.55;;
14137;SDS011;8199;51.310;9.466;2023-08-12T09:23:22;3.90;;;2.10;;
14137;SDS011;8199;51.310;9.466;2023-08-12T09:25:48;3.25;;;2.53;;
14137;SDS011;8199;51.310;9.466;2023-08-12T09:28:13;3.08;;;2.40;;
14137;SDS011;8199;51.310;9.466;2023-08-12T09:30:40;4.25;;;2.75;;
14137;SDS011;8199;51.310;9.466;2023-08-12T09:33:06;3.00;;;2.75;;
14137;SDS011;8199;51.310;9.466;2023-08-12T09:35:33;3.15;;;2.58;;
14137;SDS011;8199;51.310;9.466;2023-08-12T09:38:03;3.08;;;2.40;;
14137;SDS011;8199;51.310;9.466;2023-08-12T09:40:33;4.65;;;2.90;;
14137;SDS011;8199;51.310;9.466;2023-08-12T09:43:00;4.00;;;2.45;;
14137;SDS011;8199;51.310;9.466;2023-08-12T09:45:26;4.35;;;2.58;;
14137;SDS011;8199;51.310;9.466;2023-08-12T09:47:52;4.53;;;2.95;;
14137;SDS011;8199;51.310;9.466;2023-08-12T09:50:20;3.75;;;2.50;;
14137;SDS011;8199;51.310;9.466;2023-08-12T09:52:50;2.80;;;2.45;;
14137;SDS011;8199;51.310;9.466;2023-08-12T09:55:18;4.07;;;2.60;;
14137;SDS011;8199;51.310;9.466;2023-08-12T09:57:45;2.97;;;2.67;;
14137;SDS011;8199;51.310;9.466;2023-08-12T10:00:19;4.68;;;2.40;;
14137;SDS011;8199;51.310;9.466;2023-08-12T10:02:46;2.50;;;2.30;;
14137;SDS011;8199;51.310;9.466;2023-08-12T10:05:31;3.67;;;2.45;;
14137;SDS011;8199;51.310;9.466;2023-08-12T10:07:57;4.00;;;2.50;;
14137;SDS011;8199;51.310;9.466;2023-08-12T10:10:24;5.35;;;3.00;;
14137;SDS011;8199;51.310;9.466;2023-08-12T10:12:50;7.43;;;2.97;;
14137;SDS011;8199;51.310;9.466;2023-08-12T10:15:16;4.18;;;2.78;;
14137;SDS011;8199;51.310;9.466;2023-08-12T10:17:42;7.68;;;3.00;;
14137;SDS011;8199;51.310;9.466;2023-08-12T10:20:09;9.25;;;3.42;;
14137;SDS011;8199;51.310;9.466;2023-08-12T10:22:39;8.85;;;2.70;;
14137;SDS011;8199;51.310;9.466;2023-08-12T10:25:06;4.32;;;3.03;;
14137;SDS011;8199;51.310;9.466;2023-08-12T10:27:36;7.15;;;2.80;;
14137;SDS011;8199;51.310;9.466;2023-08-12T10:30:05;6.93;;;3.05;;
14137;SDS011;8199;51.310;9.466;2023-08-12T10:32:33;6.28;;;3.00;;
14137;SDS011;8199;51.310;9.466;2023-08-12T10:34:58;6.25;;;2.75;;
14137;SDS011;8199;51.310;9.466;2023-08-12T10:37:25;7.63;;;3.33;;
14137;SDS011;8199;51.310;9.466;2023-08-12T10:39:54;8.07;;;3.17;;
14137;SDS011;8199;51.310;9.466;2023-08-12T10:45:18;4.97;;;2.42;;
14137;SDS011;8199;51.310;9.466;2023-08-12T10:50:27;4.68;;;2.67;;
14137;SDS011;8199;51.310;9.466;2023-08-12T10:52:55;6.18;;;2.78;;
14137;SDS011;8199;51.310;9.466;2023-08-12T10:55:22;4.18;;;2.40;;
14137;SDS011;8199;51.310;9.466;2023-08-12T10:57:49;4.00;;;2.78;;
14137;SDS011;8199;51.310;9.466;2023-08-12T11:00:16;4.38;;;2.72;;
14137;SDS011;8199;51.310;9.466;2023-08-12T11:02:45;4.13;;;2.60;;
14137;SDS011;8199;51.310;9.466;2023-08-12T11:05:13;5.05;;;2.55;;
14137;SDS011;8199;51.310;9.466;2023-08-12T11:07:58;4.53;;;2.83;;
14137;SDS011;8199;51.310;9.466;2023-08-12T11:10:26;4.35;;;2.60;;
14137;SDS011;8199;51.310;9.466;2023-08-12T11:12:56;2.60;;;2.40;;
14137;SDS011;8199;51.310;9.466;2023-08-12T11:15:32;3.88;;;2.60;;
14137;SDS011;8199;51.310;9.466;2023-08-12T11:18:03;5.50;;;2.75;;
14137;SDS011;8199;51.310;9.466;2023-08-12T11:20:30;4.85;;;2.80;;
14137;SDS011;8199;51.310;9.466;2023-08-12T11:22:56;4.57;;;2.65;;
14137;SDS011;8199;51.310;9.466;2023-08-12T11:25:25;4.50;;;2.50;;
14137;SDS011;8199;51.310;9.466;2023-08-12T11:27:52;4.57;;;3.00;;
14137;SDS011;8199;51.310;9.466;2023-08-12T11:30:19;4.32;;;2.90;;
14137;SDS011;8199;51.310;9.466;2023-08-12T11:32:47;3.92;;;2.90;;
14137;SDS011;8199;51.310;9.466;2023-08-12T11:35:17;2.97;;;2.60;;
14137;SDS011;8199;51.310;9.466;2023-08-12T11:37:44;5.03;;;3.00;;
14137;SDS011;8199;51.310;9.466;2023-08-12T11:40:12;6.93;;;4.85;;
14137;SDS011;8199;51.310;9.466;2023-08-12T11:42:42;4.07;;;3.55;;
14137;SDS011;8199;51.310;9.466;2023-08-12T11:45:09;5.38;;;4.05;;
14137;SDS011;8199;51.310;9.466;2023-08-12T11:47:36;4.63;;;3.00;;
14137;SDS011;8199;51.310;9.466;2023-08-12T11:50:06;4.20;;;3.30;;
14137;SDS011;8199;51.310;9.466;2023-08-12T11:52:33;3.30;;;3.00;;
14137;SDS011;8199;51.310;9.466;2023-08-12T11:55:00;6.40;;;3.53;;
14137;SDS011;8199;51.310;9.466;2023-08-12T11:57:26;4.40;;;3.40;;
14137;SDS011;8199;51.310;9.466;2023-08-12T11:59:59;3.95;;;2.97;;
14137;SDS011;8199;51.310;9.466;2023-08-12T12:02:25;4.25;;;3.15;;
14137;SDS011;8199;51.310;9.466;2023-08-12T12:04:52;3.40;;;3.10;;
14137;SDS011;8199;51.310;9.466;2023-08-12T12:07:18;4.85;;;3.88;;
14137;SDS011;8199;51.310;9.466;2023-08-12T12:09:46;5.63;;;3.70;;
14137;SDS011;8199;51.310;9.466;2023-08-12T12:12:14;4.18;;;3.13;;
14137;SDS011;8199;51.310;9.466;2023-08-12T12:14:40;5.25;;;3.60;;
14137;SDS011;8199;51.310;9.466;2023-08-12T12:17:09;3.63;;;3.15;;
14137;SDS011;8199;51.310;9.466;2023-08-12T12:19:39;4.50;;;3.70;;
14137;SDS011;8199;51.310;9.466;2023-08-12T12:22:06;4.28;;;3.35;;
14137;SDS011;8199;51.310;9.466;2023-08-12T12:24:32;4.40;;;3.53;;
14137;SDS011;8199;51.310;9.466;2023-08-12T12:27:15;5.03;;;3.65;;
14137;SDS011;8199;51.310;9.466;2023-08-12T12:29:41;4.45;;;3.88;;
14137;SDS011;8199;51.310;9.466;2023-08-12T12:32:06;4.85;;;3.53;;
14137;SDS011;8199;51.310;9.466;2023-08-12T12:34:32;4.38;;;3.88;;
14137;SDS011;8199;51.310;9.466;2023-08-12T12:36:57;5.68;;;3.97;;
14137;SDS011;8199;51.310;9.466;2023-08-12T12:39:23;5.45;;;4.85;;
14137;SDS011;8199;51.310;9.466;2023-08-12T12:41:49;4.15;;;3.72;;
14137;SDS011;8199;51.310;9.466;2023-08-12T12:44:14;5.72;;;4.05;;
14137;SDS011;8199;51.310;9.466;2023-08-12T12:46:40;4.30;;;3.70;;
14137;SDS011;8199;51.310;9.466;2023-08-12T12:49:05;5.20;;;4.53;;
14137;SDS011;8199;51.310;9.466;2023-08-12T12:51:31;5.43;;;4.22;;
14137;SDS011;8199;51.310;9.466;2023-08-12T12:53:57;5.65;;;4.53;;
14137;SDS011;8199;51.310;9.466;2023-08-12T12:56:22;5.82;;;4.60;;
14137;SDS011;8199;51.310;9.466;2023-08-12T12:58:48;5.57;;;4.53;;
14137;SDS011;8199;51.310;9.466;2023-08-12T13:01:13;5.40;;;4.43;;
14137;SDS011;8199;51.310;9.466;2023-08-12T13:03:39;10.68;;;5.75;;
14137;SDS011;8199;51.310;9.466;2023-08-12T13:06:05;5.10;;;4.43;;
14137;SDS011;8199;51.310;9.466;2023-08-12T13:08:31;5.43;;;4.82;;
14137;SDS011;8199;51.310;9.466;2023-08-12T13:10:56;5.20;;;4.40;;
14137;SDS011;8199;51.310;9.466;2023-08-12T13:13:22;5.38;;;4.10;;
14137;SDS011;8199;51.310;9.466;2023-08-12T13:15:48;5.57;;;4.50;;
14137;SDS011;8199;51.310;9.466;2023-08-12T13:18:14;5.13;;;3.70;;
14137;SDS011;8199;51.310;9.466;2023-08-12T13:20:40;4.72;;;4.07;;
14137;SDS011;8199;51.310;9.466;2023-08-12T13:23:05;5.10;;;3.90;;
14137;SDS011;8199;51.310;9.466;2023-08-12T13:25:32;4.28;;;3.90;;
14137;SDS011;8199;51.310;9.466;2023-08-12T13:27:58;5.03;;;4.30;;
14137;SDS011;8199;51.310;9.466;2023-08-12T13:30:25;4.70;;;3.83;;
14137;SDS011;8199;51.310;9.466;2023-08-12T13:32:51;4.40;;;4.00;;
14137;SDS011;8199;51.310;9.466;2023-08-12T13:35:17;4.38;;;3.83;;
14137;SDS011;8199;51.310;9.466;2023-08-12T13:37:42;4.20;;;3.80;;
14137;SDS011;8199;51.310;9.466;2023-08-12T13:40:08;4.63;;;3.70;;
14137;SDS011;8199;51.310;9.466;2023-08-12T13:42:34;4.20;;;3.80;;
14137;SDS011;8199;51.310;9.466;2023-08-12T13:45:00;6.05;;;3.95;;
14137;SDS011;8199;51.310;9.466;2023-08-12T13:47:25;4.20;;;3.78;;
14137;SDS011;8199;51.310;9.466;2023-08-12T13:49:51;4.38;;;3.38;;
14137;SDS011;8199;51.310;9.466;2023-08-12T13:52:16;3.92;;;3.53;;
14137;SDS011;8199;51.310;9.466;2023-08-12T13:54:42;3.70;;;3.40;;
14137;SDS011;8199;51.310;9.466;2023-08-12T13:57:08;3.53;;;3.22;;
14137;SDS011;8199;51.310;9.466;2023-08-12T13:59:33;4.35;;;3.70;;
14137;SDS011;8199;51.310;9.466;2023-08-12T14:01:59;3.45;;;3.15;;
14137;SDS011;8199;51.310;9.466;2023-08-12T14:04:24;3.85;;;3.15;;
14137;SDS011;8199;51.310;9.466;2023-08-12T14:06:50;3.67;;;3.35;;
14137;SDS011;8199;51.310;9.466;2023-08-12T14:09:16;3.90;;;3.50;;
14137;SDS011;8199;51.310;9.466;2023-08-12T14:11:43;3.42;;;3.00;;
14137;SDS011;8199;51.310;9.466;2023-08-12T14:14:08;3.70;;;3.10;;
14137;SDS011;8199;51.310;9.466;2023-08-12T14:16:35;3.50;;;3.20;;
14137;SDS011;8199;51.310;9.466;2023-08-12T14:19:00;3.75;;;3.20;;
14137;SDS011;8199;51.310;9.466;2023-08-12T14:21:26;4.38;;;3.40;;
14137;SDS011;8199;51.310;9.466;2023-08-12T14:23:51;4.00;;;3.15;;
14137;SDS011;8199;51.310;9.466;2023-08-12T14:26:17;3.38;;;2.97;;
14137;SDS011;8199;51.310;9.466;2023-08-12T14:28:42;3.67;;;3.10;;
14137;SDS011;8199;51.310;9.466;2023-08-12T14:31:08;3.20;;;2.90;;
14137;SDS011;8199;51.310;9.466;2023-08-12T14:33:34;3.35;;;3.00;;
14137;SDS011;8199;51.310;9.466;2023-08-12T14:35:59;3.53;;;3.22;;
14137;SDS011;8199;51.310;9.466;2023-08-12T14:38:25;3.50;;;3.17;;
14137;SDS011;8199;51.310;9.466;2023-08-12T14:40:51;3.40;;;3.10;;
14137;SDS011;8199;51.310;9.466;2023-08-12T14:43:16;3.30;;;2.90;;
14137;SDS011;8199;51.310;9.466;2023-08-12T14:45:44;4.10;;;3.28;;
14137;SDS011;8199;51.310;9.466;2023-08-12T14:48:10;3.50;;;3.20;;
14137;SDS011;8199;51.310;9.466;2023-08-12T14:50:39;3.60;;;3.30;;
14137;SDS011;8199;51.310;9.466;2023-08-12T14:53:05;3.20;;;2.90;;
14137;SDS011;8199;51.310;9.466;2023-08-12T14:55:30;2.85;;;2.65;;
14137;SDS011;8199;51.310;9.466;2023-08-12T14:57:56;3.20;;;2.90;;
14137;SDS011;8199;51.310;9.466;2023-08-12T15:00:21;3.13;;;2.80;;